createdAt,value
2018-07-03T00:02:03.961Z,46.10
2018-07-03T00:04:38.706Z,46.10
2018-07-03T00:07:13.883Z,46.30
2018-07-03T00:09:48.970Z,46.40
2018-07-03T00:12:23.844Z,46.40
2018-07-03T00:14:58.695Z,46.40
2018-07-03T00:17:34.254Z,46.70
2018-07-03T00:20:09.502Z,46.90
2018-07-03T00:22:44.712Z,46.90
2018-07-03T00:25:20.693Z,47.00
2018-07-03T00:27:55.391Z,47.30
2018-07-03T00:30:30.154Z,47.40
2018-07-03T00:33:04.955Z,47.50
2018-07-03T00:38:14.533Z,48.30
2018-07-03T00:40:49.452Z,48.50
2018-07-03T00:43:24.527Z,48.60
2018-07-03T00:45:59.778Z,48.60
2018-07-03T00:48:34.684Z,48.60
2018-07-03T00:53:44.327Z,49.00
2018-07-03T00:56:18.995Z,48.80
2018-07-03T00:58:53.911Z,48.90
2018-07-03T01:01:29.020Z,48.90
2018-07-03T01:04:04.711Z,48.90
2018-07-03T01:06:39.574Z,49.20
2018-07-03T01:09:14.610Z,49.50
2018-07-03T01:11:49.650Z,49.80
2018-07-03T01:14:24.550Z,50.10
2018-07-03T01:16:59.705Z,50.60
2018-07-03T01:19:34.930Z,50.70
2018-07-03T01:22:09.929Z,50.60
2018-07-03T01:24:44.902Z,50.30
2018-07-03T01:29:54.749Z,51.30
2018-07-03T01:32:29.827Z,51.50
2018-07-03T01:35:04.874Z,51.40
2018-07-03T01:37:39.745Z,51.40
2018-07-03T01:40:14.736Z,51.70
2018-07-03T01:42:49.522Z,51.50
2018-07-03T01:45:24.473Z,51.40
2018-07-03T01:47:59.408Z,51.70
2018-07-03T01:50:34.421Z,51.90
2018-07-03T01:53:09.348Z,52.00
2018-07-03T01:55:44.164Z,52.20
2018-07-03T01:58:19.417Z,52.40
2018-07-03T02:00:54.371Z,52.50
2018-07-03T02:03:29.242Z,52.60
2018-07-03T02:06:04.115Z,52.70
2018-07-03T02:08:38.820Z,52.50
2018-07-03T02:11:13.718Z,52.60
2018-07-03T02:13:48.607Z,52.80
2018-07-03T02:16:23.515Z,52.70
2018-07-03T02:18:58.558Z,52.90
2018-07-03T02:21:33.582Z,53.60
2018-07-03T02:24:08.866Z,53.30
2018-07-03T02:26:44.303Z,53.40
2018-07-03T02:29:19.519Z,53.50
2018-07-03T02:31:54.998Z,53.70
2018-07-03T02:34:29.820Z,53.70
2018-07-03T02:37:05.097Z,53.60
2018-07-03T02:39:40.573Z,53.80
2018-07-03T02:42:15.509Z,53.80
2018-07-03T02:47:25.354Z,54.10
2018-07-03T02:50:00.428Z,54.30
2018-07-03T02:52:35.376Z,54.40
2018-07-03T02:55:10.268Z,54.50
2018-07-03T02:57:45.147Z,54.70
2018-07-03T03:00:20.090Z,54.90
2018-07-03T03:02:54.945Z,54.90
2018-07-03T03:05:30.184Z,55.00
2018-07-03T03:08:05.358Z,55.00
2018-07-03T03:10:40.430Z,55.10
2018-07-03T03:13:16.187Z,55.20
2018-07-03T03:15:45.791Z,55.40
2018-07-03T03:20:55.254Z,55.60
2018-07-03T03:23:30.476Z,55.60
2018-07-03T03:26:05.641Z,55.70
2018-07-03T03:28:40.594Z,55.90
2018-07-03T03:31:15.531Z,55.90
2018-07-03T03:33:50.676Z,55.80
2018-07-03T03:36:25.947Z,55.80
2018-07-03T03:39:00.694Z,56.00
2018-07-03T03:41:35.557Z,56.00
2018-07-03T03:44:11.064Z,56.20
2018-07-03T03:46:45.922Z,56.20
2018-07-03T03:49:20.641Z,56.40
2018-07-03T03:51:55.901Z,56.40
2018-07-03T03:57:05.933Z,56.70
2018-07-03T03:59:43.883Z,56.70
2018-07-03T04:02:18.787Z,57.10
2018-07-03T04:04:53.699Z,56.70
2018-07-03T04:07:28.558Z,56.70
2018-07-03T04:10:03.538Z,56.80
2018-07-03T04:12:38.496Z,56.70
2018-07-03T04:15:13.354Z,57.00
2018-07-03T04:17:48.369Z,57.00
2018-07-03T04:20:23.435Z,57.00
2018-07-03T04:22:58.246Z,57.40
2018-07-03T04:25:33.209Z,57.40
2018-07-03T04:28:08.436Z,57.30
2018-07-03T04:30:44.040Z,57.20
2018-07-03T04:33:18.877Z,57.00
2018-07-03T04:35:54.384Z,56.90
2018-07-03T04:38:29.560Z,57.10
2018-07-03T04:41:04.654Z,57.00
2018-07-03T04:43:39.826Z,56.90
2018-07-03T04:46:14.630Z,57.10
2018-07-03T04:48:49.447Z,57.00
2018-07-03T04:51:24.423Z,56.80
2018-07-03T04:53:59.649Z,57.00
2018-07-03T04:56:34.614Z,57.20
2018-07-03T04:59:09.649Z,57.40
2018-07-03T05:01:44.501Z,57.30
2018-07-03T05:04:21.318Z,57.50
2018-07-03T05:06:56.434Z,57.80
2018-07-03T05:09:31.689Z,58.10
2018-07-03T05:12:06.958Z,57.90
2018-07-03T05:14:41.680Z,57.60
2018-07-03T05:17:16.750Z,57.70
2018-07-03T05:19:51.542Z,57.90
2018-07-03T05:22:26.878Z,58.10
2018-07-03T05:25:02.087Z,58.20
2018-07-03T05:27:37.483Z,58.30
2018-07-03T05:30:12.621Z,57.90
2018-07-03T05:32:47.648Z,58.00
2018-07-03T05:35:22.636Z,57.70
2018-07-03T05:37:57.654Z,57.30
2018-07-03T05:40:32.850Z,57.00
2018-07-03T05:43:08.467Z,56.90
2018-07-03T05:45:43.737Z,56.90
2018-07-03T05:48:18.766Z,56.70
2018-07-03T05:50:53.570Z,57.10
2018-07-03T05:53:28.465Z,57.10
2018-07-03T05:56:03.446Z,56.90
2018-07-03T06:01:13.733Z,56.40
2018-07-03T06:03:49.519Z,56.40
2018-07-03T06:06:25.775Z,56.30
2018-07-03T06:08:55.146Z,55.70
2018-07-03T06:11:30.387Z,55.60
2018-07-03T06:13:59.921Z,55.50
2018-07-03T06:16:35.383Z,55.40
2018-07-03T06:19:10.683Z,55.00
2018-07-03T06:21:45.639Z,54.50
2018-07-03T06:26:49.841Z,54.10
2018-07-03T06:29:19.310Z,53.30
2018-07-03T06:31:49.042Z,53.30
2018-07-03T06:34:18.346Z,53.70
2018-07-03T06:36:53.554Z,53.90
2018-07-03T06:39:28.495Z,52.30
2018-07-03T06:42:03.473Z,52.70
2018-07-03T06:44:32.927Z,52.90
2018-07-03T06:47:02.226Z,52.00
2018-07-03T06:49:37.193Z,50.80
2018-07-03T06:52:12.291Z,51.00
2018-07-03T06:54:47.020Z,50.50
2018-07-03T06:57:22.072Z,50.10
2018-07-03T06:59:57.076Z,50.50
2018-07-03T07:02:32.051Z,50.70
2018-07-03T07:05:07.234Z,50.70
2018-07-03T07:10:16.837Z,50.40
2018-07-03T07:12:51.687Z,51.20
2018-07-03T07:15:26.695Z,50.30
2018-07-03T07:18:01.710Z,49.80
2018-07-03T07:20:36.372Z,50.10
2018-07-03T07:28:20.533Z,50.10
2018-07-03T07:30:55.499Z,50.10
2018-07-03T07:33:30.443Z,50.40
2018-07-03T07:38:40.187Z,49.80
2018-07-03T07:41:15.137Z,49.20
2018-07-03T07:48:59.798Z,49.50
2018-07-03T07:51:35.427Z,50.80
2018-07-03T07:54:10.459Z,50.10
2018-07-03T07:56:45.851Z,50.10
2018-07-03T07:59:20.609Z,50.00
2018-07-03T08:01:55.560Z,49.20
2018-07-03T08:04:30.416Z,49.40
2018-07-03T08:07:05.773Z,48.80
2018-07-03T08:09:40.935Z,49.10
2018-07-03T08:12:16.035Z,47.90
2018-07-03T08:14:51.045Z,47.20
2018-07-03T08:17:26.619Z,47.60
2018-07-03T08:19:56.621Z,48.10
2018-07-03T08:22:31.493Z,47.90
2018-07-03T08:25:06.364Z,47.90
2018-07-03T08:27:39.725Z,47.90
2018-07-03T08:30:14.872Z,46.80
2018-07-03T08:32:50.189Z,46.70
2018-07-03T08:35:25.350Z,46.80
2018-07-03T08:40:34.894Z,46.00
2018-07-03T08:43:10.127Z,47.20
2018-07-03T08:45:44.943Z,46.20
2018-07-03T08:48:19.941Z,44.80
2018-07-03T08:50:54.956Z,44.60
2018-07-03T08:53:29.917Z,44.80
2018-07-03T08:56:04.948Z,45.10
2018-07-03T08:58:40.019Z,44.80
2018-07-03T09:01:14.923Z,45.40
2018-07-03T09:03:50.074Z,44.70
2018-07-03T09:06:25.805Z,44.80
2018-07-03T09:09:00.586Z,44.70
2018-07-03T09:11:35.790Z,45.80
2018-07-03T09:14:05.538Z,45.80
2018-07-03T09:16:40.352Z,46.30
2018-07-03T09:19:15.598Z,46.00
2018-07-03T09:21:51.118Z,45.10
2018-07-03T09:24:26.210Z,45.50
2018-07-03T09:27:01.010Z,45.50
2018-07-03T09:29:36.043Z,45.40
2018-07-03T09:32:10.928Z,45.50
2018-07-03T09:34:40.428Z,45.40
2018-07-03T09:37:15.243Z,45.30
2018-07-03T09:39:50.209Z,45.50
2018-07-03T09:42:25.284Z,44.30
2018-07-03T09:45:00.609Z,44.40
2018-07-03T09:47:35.505Z,44.60
2018-07-03T09:50:10.601Z,43.30
2018-07-03T09:52:45.464Z,44.00
2018-07-03T09:55:20.390Z,43.80
2018-07-03T09:57:55.094Z,43.30
2018-07-03T10:00:35.506Z,44.80
2018-07-03T10:03:10.683Z,44.40
2018-07-03T10:05:45.612Z,44.20
2018-07-03T10:08:20.756Z,43.70
2018-07-03T10:10:55.803Z,43.20
2018-07-03T10:13:30.887Z,44.10
2018-07-03T10:16:05.942Z,42.20
2018-07-03T10:18:40.841Z,43.30
2018-07-03T10:21:15.832Z,44.20
2018-07-03T10:23:50.695Z,42.80
2018-07-03T10:26:20.091Z,43.90
2018-07-03T10:28:54.770Z,43.40
2018-07-03T10:31:29.984Z,44.20
2018-07-03T10:34:05.330Z,45.00
2018-07-03T10:36:40.297Z,44.00
2018-07-03T10:44:24.246Z,44.50
2018-07-03T10:46:59.295Z,44.90
2018-07-03T10:49:34.432Z,44.40
2018-07-03T10:52:09.307Z,44.10
2018-07-03T10:54:44.271Z,44.30
2018-07-03T10:57:19.141Z,44.70
2018-07-03T10:59:54.097Z,45.10
2018-07-03T11:02:28.840Z,42.40
2018-07-03T11:05:03.774Z,41.80
2018-07-03T11:07:38.705Z,41.90
2018-07-03T11:10:13.668Z,42.70
2018-07-03T11:12:48.681Z,41.80
2018-07-03T11:17:58.877Z,43.60
2018-07-03T11:20:33.946Z,42.60
2018-07-03T11:23:08.883Z,42.20
2018-07-03T11:25:43.816Z,42.30
2018-07-03T11:28:18.767Z,40.70
2018-07-03T11:30:54.047Z,40.50
2018-07-03T11:33:28.858Z,40.30
2018-07-03T11:36:04.080Z,41.40
2018-07-03T11:38:38.752Z,41.20
2018-07-03T11:41:14.029Z,41.00
2018-07-03T11:43:51.177Z,43.20
2018-07-03T11:46:27.936Z,40.90
2018-07-03T11:49:04.692Z,40.40
2018-07-03T11:51:44.323Z,41.50
2018-07-03T11:54:19.515Z,42.50
2018-07-03T11:59:30.863Z,40.90
2018-07-03T12:02:01.096Z,41.70
2018-07-03T12:04:30.687Z,41.70
2018-07-03T12:07:00.587Z,41.00
2018-07-03T12:09:30.226Z,41.60
2018-07-03T12:11:59.690Z,41.50
2018-07-03T12:14:29.425Z,43.10
2018-07-03T12:16:58.759Z,40.70
2018-07-03T12:19:28.898Z,39.40
2018-07-03T12:21:58.839Z,39.90
2018-07-03T12:24:29.022Z,40.00
2018-07-03T12:26:58.304Z,41.70
2018-07-03T12:29:27.602Z,40.40
2018-07-03T12:31:57.189Z,41.50
2018-07-03T12:36:55.743Z,39.70
2018-07-03T12:39:25.284Z,40.80
2018-07-03T12:41:54.562Z,40.10
2018-07-03T12:44:23.999Z,41.20
2018-07-03T12:46:53.484Z,40.60
2018-07-03T12:49:22.614Z,39.80
2018-07-03T12:51:52.631Z,40.30
2018-07-03T12:54:21.840Z,40.60
2018-07-03T12:56:51.464Z,40.90
2018-07-03T12:59:20.912Z,39.80
2018-07-03T13:01:50.426Z,39.60
2018-07-03T13:04:19.832Z,39.40
2018-07-03T13:06:49.364Z,38.90
2018-07-03T13:09:24.528Z,39.70
2018-07-03T13:11:59.596Z,41.10
2018-07-03T13:14:34.623Z,39.50
2018-07-03T13:17:05.561Z,39.70
2018-07-03T13:19:35.154Z,39.00
2018-07-03T13:22:04.349Z,38.70
2018-07-03T13:24:33.790Z,40.90
2018-07-03T13:27:08.802Z,41.50
2018-07-03T13:29:38.389Z,41.90
2018-07-03T13:32:07.695Z,40.30
2018-07-03T13:34:37.329Z,41.20
2018-07-03T13:37:07.188Z,41.20
2018-07-03T13:39:37.015Z,39.70
2018-07-03T13:42:06.494Z,39.40
2018-07-03T13:44:36.391Z,38.70
2018-07-03T13:47:06.181Z,41.10
2018-07-03T13:49:41.014Z,42.10
2018-07-03T13:52:15.895Z,40.50
2018-07-03T13:54:50.844Z,37.40
2018-07-03T13:57:25.832Z,37.70
2018-07-03T14:00:00.699Z,37.80
2018-07-03T14:02:36.084Z,36.40
2018-07-03T14:05:10.974Z,36.80
2018-07-03T14:10:20.803Z,36.30
2018-07-03T14:12:55.735Z,35.20
2018-07-03T14:15:30.810Z,36.40
2018-07-03T14:18:05.615Z,36.00
2018-07-03T14:20:40.851Z,35.80
2018-07-03T14:23:15.667Z,36.40
2018-07-03T14:25:50.930Z,36.70
2018-07-03T14:28:26.120Z,35.30
2018-07-03T14:31:01.176Z,34.90
2018-07-03T14:33:36.203Z,36.30
2018-07-03T14:36:11.895Z,36.60
2018-07-03T14:38:46.991Z,35.50
2018-07-03T14:41:21.810Z,36.50
2018-07-03T14:43:57.054Z,36.10
2018-07-03T14:46:32.270Z,36.30
2018-07-03T14:49:07.397Z,35.10
2018-07-03T14:51:42.566Z,35.20
2018-07-03T14:54:18.435Z,35.60
2018-07-03T14:56:53.147Z,35.30
2018-07-03T14:59:27.969Z,36.00
2018-07-03T15:02:02.805Z,35.40
2018-07-03T15:07:13.789Z,36.50
2018-07-03T15:09:48.934Z,35.10
2018-07-03T15:12:24.082Z,34.70
2018-07-03T15:17:34.127Z,34.60
2018-07-03T15:20:08.972Z,34.30
2018-07-03T15:25:18.519Z,34.20
2018-07-03T15:27:53.774Z,34.00
2018-07-03T15:30:29.137Z,33.90
2018-07-03T15:33:03.906Z,33.70
2018-07-03T15:35:38.792Z,33.50
2018-07-03T15:38:13.822Z,33.10
2018-07-03T15:40:49.248Z,34.20
2018-07-03T15:43:24.330Z,33.20
2018-07-03T15:45:53.800Z,32.90
2018-07-03T15:48:29.656Z,33.90
2018-07-03T15:51:04.937Z,34.50
2018-07-03T15:53:40.336Z,33.50
2018-07-03T15:56:15.997Z,33.80
2018-07-03T15:58:51.143Z,34.10
2018-07-03T16:04:13.064Z,33.30
2018-07-03T16:07:56.683Z,34.10
2018-07-03T16:10:32.141Z,35.20
2018-07-03T16:13:07.481Z,34.30
2018-07-03T16:15:42.722Z,33.30
2018-07-03T16:18:26.797Z,35.20
2018-07-03T16:21:01.829Z,34.10
2018-07-03T16:23:37.799Z,34.60
2018-07-03T16:26:13.297Z,33.90
2018-07-03T16:28:49.061Z,34.80
2018-07-03T16:31:25.649Z,35.70
2018-07-03T16:34:01.765Z,34.40
2018-07-03T16:36:36.779Z,34.30
2018-07-03T16:39:12.978Z,35.30
2018-07-03T16:41:48.215Z,34.10
2018-07-03T16:44:23.456Z,33.80
2018-07-03T16:46:58.765Z,33.60
2018-07-03T16:49:33.632Z,34.20
2018-07-03T16:52:09.429Z,33.80
2018-07-03T16:54:44.313Z,35.00
2018-07-03T16:57:20.092Z,34.40
2018-07-03T16:59:54.786Z,33.40
2018-07-03T17:02:29.752Z,33.40
2018-07-03T17:05:04.699Z,33.60
2018-07-03T17:07:46.784Z,34.00
2018-07-03T17:10:21.677Z,34.20
2018-07-03T17:12:57.251Z,35.50
2018-07-03T17:15:38.958Z,33.30
2018-07-03T17:18:13.920Z,34.00
2018-07-03T17:20:49.070Z,33.60
2018-07-03T17:23:23.957Z,33.70
2018-07-03T17:25:59.099Z,34.30
2018-07-03T17:28:34.917Z,34.30
2018-07-03T17:31:10.048Z,33.70
2018-07-03T17:33:44.994Z,33.40
2018-07-03T17:36:19.964Z,33.10
2018-07-03T17:38:55.252Z,33.20
2018-07-03T17:42:43.918Z,33.70
2018-07-03T17:46:22.166Z,33.90
2018-07-03T17:48:57.451Z,34.40
2018-07-03T17:51:26.771Z,34.60
2018-07-03T17:54:01.557Z,34.80
2018-07-03T17:56:36.515Z,34.00
2018-07-03T17:59:11.712Z,34.40
2018-07-03T18:01:47.071Z,34.20
2018-07-03T18:04:22.028Z,35.50
2018-07-03T18:06:57.153Z,34.70
2018-07-03T18:09:32.580Z,35.20
2018-07-03T18:12:07.613Z,35.30
2018-07-03T18:14:42.548Z,36.00
2018-07-03T18:17:17.736Z,36.50
2018-07-03T18:19:52.758Z,36.40
2018-07-03T18:22:27.667Z,36.70
2018-07-03T18:25:03.137Z,36.60
2018-07-03T18:27:38.378Z,36.60
2018-07-03T18:30:13.830Z,37.20
2018-07-03T18:32:48.829Z,37.00
2018-07-03T18:35:23.823Z,37.50
2018-07-03T18:37:58.719Z,37.30
2018-07-03T18:40:33.946Z,37.60
2018-07-03T18:43:09.105Z,36.20
2018-07-03T18:45:44.332Z,36.10
2018-07-03T18:48:19.904Z,36.60
2018-07-03T18:50:54.944Z,36.70
2018-07-03T18:53:24.177Z,37.10
2018-07-03T18:55:54.007Z,37.50
2018-07-03T19:00:52.713Z,37.10
2018-07-03T19:03:28.486Z,36.90
2018-07-03T19:06:03.867Z,36.70
2018-07-03T19:08:39.046Z,37.10
2018-07-03T19:11:14.741Z,37.70
2018-07-03T19:13:50.212Z,37.80
2018-07-03T19:16:25.159Z,38.60
2018-07-03T19:19:00.196Z,38.60
2018-07-03T19:21:35.015Z,38.30
2018-07-03T19:24:10.007Z,38.50
2018-07-03T19:26:44.972Z,39.30
2018-07-03T19:29:20.277Z,39.60
2018-07-03T19:31:56.136Z,40.00
2018-07-03T19:34:31.877Z,40.30
2018-07-03T19:37:07.387Z,40.50
2018-07-03T19:39:42.748Z,40.40
2018-07-03T19:42:18.129Z,40.80
2018-07-03T19:44:53.599Z,40.90
2018-07-03T19:50:03.863Z,41.50
2018-07-03T19:52:39.094Z,41.80
2018-07-03T19:55:14.224Z,41.90
2018-07-03T19:57:49.751Z,41.90
2018-07-03T20:00:24.980Z,42.40
2018-07-03T20:03:00.217Z,42.70
2018-07-03T20:05:36.182Z,43.30
2018-07-03T20:08:11.805Z,43.40
2018-07-03T20:10:47.477Z,43.50
2018-07-03T20:13:22.422Z,43.80
2018-07-03T20:15:57.639Z,44.10
2018-07-03T20:18:39.410Z,43.80
2018-07-03T20:21:14.752Z,44.40
2018-07-03T20:23:50.778Z,44.10
2018-07-03T20:26:28.002Z,44.10
2018-07-03T20:29:03.075Z,43.90
2018-07-03T20:31:39.045Z,44.30
2018-07-03T20:34:17.549Z,44.80
2018-07-03T20:36:57.060Z,44.50
2018-07-03T20:39:32.523Z,44.40
2018-07-03T20:42:09.201Z,44.60
2018-07-03T20:44:45.309Z,44.70
2018-07-03T20:47:20.384Z,45.10
2018-07-03T20:49:58.561Z,45.30
2018-07-03T20:55:09.853Z,45.90
2018-07-03T20:57:46.160Z,46.10
2018-07-03T21:02:56.320Z,46.30
2018-07-03T21:05:32.509Z,46.70
2018-07-03T21:08:09.760Z,47.20
2018-07-03T21:10:45.076Z,46.80
2018-07-03T21:13:21.577Z,47.50
2018-07-03T21:15:56.763Z,46.70
2018-07-03T21:18:32.824Z,47.00
2018-07-03T21:23:52.516Z,46.40
2018-07-03T21:26:27.869Z,47.20
2018-07-03T21:29:04.124Z,47.10
2018-07-03T21:31:40.300Z,47.30
2018-07-03T21:34:15.879Z,47.60
2018-07-03T21:36:53.074Z,47.50
2018-07-03T21:39:28.296Z,47.40
2018-07-03T21:42:03.384Z,47.30
2018-07-03T21:44:42.525Z,47.30
2018-07-03T21:47:21.082Z,47.40
2018-07-03T21:49:55.915Z,47.70
2018-07-03T21:52:35.248Z,48.10
2018-07-03T21:55:13.336Z,47.70
2018-07-03T21:57:48.485Z,47.90
2018-07-03T22:00:38.713Z,48.00
2018-07-03T22:03:15.101Z,48.30
2018-07-03T22:05:50.264Z,48.00
2018-07-03T22:08:24.985Z,48.20
2018-07-03T22:11:00.059Z,48.20
2018-07-03T22:13:34.920Z,48.10
2018-07-03T22:16:09.954Z,47.90
2018-07-03T22:18:44.827Z,47.90
2018-07-03T22:21:19.768Z,48.00
2018-07-03T22:23:54.870Z,48.10
2018-07-03T22:26:32.167Z,48.10
2018-07-03T22:29:07.120Z,48.40
2018-07-03T22:31:42.054Z,48.40
2018-07-03T22:34:19.137Z,48.60
2018-07-03T22:36:54.363Z,48.70
2018-07-03T22:39:30.444Z,49.00
2018-07-03T22:42:06.138Z,49.10
2018-07-03T22:44:41.004Z,49.40
2018-07-03T22:47:15.949Z,49.50
2018-07-03T22:49:50.656Z,49.70
2018-07-03T22:52:25.634Z,50.10
2018-07-03T22:55:00.432Z,50.20
2018-07-03T22:57:35.528Z,50.40
2018-07-03T23:00:10.440Z,50.40
2018-07-03T23:02:45.373Z,50.60
2018-07-03T23:05:20.401Z,50.80
2018-07-03T23:07:55.317Z,51.00
2018-07-03T23:10:30.229Z,51.10
2018-07-03T23:13:05.151Z,51.40
2018-07-03T23:15:34.313Z,51.50
2018-07-03T23:18:09.210Z,51.60
2018-07-03T23:20:44.550Z,51.70
2018-07-03T23:23:19.592Z,51.80
2018-07-03T23:25:54.867Z,52.00
2018-07-03T23:28:29.639Z,52.20
2018-07-03T23:31:04.535Z,52.40
2018-07-03T23:33:39.417Z,52.70
2018-07-03T23:38:48.817Z,53.40
2018-07-03T23:41:23.811Z,53.20
2018-07-03T23:43:58.752Z,53.50
2018-07-03T23:46:43.592Z,53.70
2018-07-03T23:49:29.854Z,53.80
2018-07-03T23:52:16.091Z,54.10
2018-07-03T23:55:02.204Z,54.30
2018-07-03T23:57:48.421Z,54.50
